メインページ
METAR-TAF:

METAR-TAF

空港 :

ビリー・ビショップ・トロント・シティー空港

トロント・シティーセンター, オンタリオ州, カナダ

緯度: 43-38N, 経度: 079-24W, 海抜: 77m

現時点の気象観測

当レポートは35分前の10:00(UTC)に作成
北西の風 6kt、西/北西からの間で変化する
気温 -9°C
湿度 67%
気圧 1021 hPa
視程: 14.5km
晴天

METAR: CYTZ 231000Z AUTO 32006KT 290V350 9SM CLR M09/M14 A3014 RMK SLP211

時間: 05:35 (10:35 UTC)

予報

当レポートは2時間55分前の07:40(UTC)に作成
予報は23日の 08時(UTC)から 24日の 08時(UTC)まで有効
北/北西の風 8kt
視程: 10km
高度4000ftの雲はほとんどない
高度8000ftの雲は散在している
23日の 13時(UTC)から 23日の 15時(UTC)まで徐々に
北西の風 10kt、最大20ktの突風を伴う
23日の 1500時(UTC)から
北西の風 10kt、最大20ktの突風を伴う
視程: 10km
高度2500ftの雲はほとんどない
23日の 2300時(UTC)から
西/北西の風 10kt
視程: 10km
高度4000ftの千切れ雲あり
24日の 0300時(UTC)から
西の風 8kt
視程: 10km
高度2000ftの雲はほとんどない
高度4000ftの雲は散在している

TAF: CYTZ 230740Z 2308/2408 33008KT P6SM FEW040 SCT080 BECMG 2313/2315 31010G20KT FM231500 31010G20KT P6SM FEW025 FM232300 30010KT P6SM BKN040 FM240300 28008KT P6SM FEW020 SCT040 RMK FCST BASED ON AUTO OBS. NXT FCST BY 231400Z

4,000以上の空港の気象観測と天気予報(METAR報とTAF報)

利用可能な観測所は地図上に黄色い丸と赤い丸で示す。

丸の上にカーソルを重ねると観測所名を参照できる。

次にクリックすると気象観測と天気予報を参照できる。

マップの切り替え:黒色「×」印の緑ボタンをクリックして拡大、「-」印の緑ボタンをクリックして縮小、緑色の三角印をクリックして隣りの地図に切り替え


METAR-TAF: